createdAt,value
2023-03-22T00:01:41.675Z,99241.47
2023-03-22T00:04:14.655Z,99232.97
2023-03-22T00:06:48.117Z,99243.16
2023-03-22T00:09:21.111Z,99245.53
2023-03-22T00:11:57.421Z,99244.75
2023-03-22T00:14:32.218Z,99247.84
2023-03-22T00:17:05.627Z,99252.75
2023-03-22T00:19:42.194Z,99253.88
2023-03-22T00:22:16.287Z,99255.41
2023-03-22T00:24:49.257Z,99265.47
2023-03-22T00:27:22.185Z,99257.91
2023-03-22T00:29:56.651Z,99258.81
2023-03-22T00:32:29.740Z,99254.50
2023-03-22T00:35:03.467Z,99249.53
2023-03-22T00:37:38.708Z,99253.19
2023-03-22T00:40:13.233Z,99252.53
2023-03-22T00:42:46.244Z,99247.88
2023-03-22T00:45:21.010Z,99254.63
2023-03-22T00:47:54.509Z,99259.56
2023-03-22T00:50:27.781Z,99249.03
2023-03-22T00:53:00.984Z,99253.50
2023-03-22T00:55:34.214Z,99256.97
2023-03-22T00:58:07.188Z,99259.47
2023-03-22T01:00:42.015Z,99258.06
2023-03-22T01:03:16.311Z,99253.09
2023-03-22T01:05:50.563Z,99258.13
2023-03-22T01:08:23.808Z,99253.09
2023-03-22T01:10:56.869Z,99244.16
2023-03-22T01:13:30.876Z,99249.94
2023-03-22T01:16:06.304Z,99251.09
2023-03-22T01:18:39.561Z,99256.03
2023-03-22T01:21:12.431Z,99255.25
2023-03-22T01:23:45.353Z,99259.69
2023-03-22T01:26:18.327Z,99266.41
2023-03-22T01:28:51.500Z,99270.47
2023-03-22T01:31:25.852Z,99262.22
2023-03-22T01:33:59.795Z,99282.50
2023-03-22T01:36:32.987Z,99280.44
2023-03-22T01:39:06.162Z,99269.34
2023-03-22T01:41:39.060Z,99266.06
2023-03-22T01:44:13.393Z,99263.09
2023-03-22T01:46:48.465Z,99264.53
2023-03-22T01:49:24.686Z,99262.47
2023-03-22T01:52:01.562Z,99261.22
2023-03-22T01:54:36.999Z,99254.63
2023-03-22T01:57:10.541Z,99259.81
2023-03-22T01:59:45.062Z,99261.44
2023-03-22T02:02:20.064Z,99265.09
2023-03-22T02:04:58.199Z,99265.00
2023-03-22T02:07:31.839Z,99269.69
2023-03-22T02:10:05.251Z,99273.97
2023-03-22T02:12:45.332Z,99273.91
2023-03-22T02:15:21.359Z,99271.31
2023-03-22T02:18:07.101Z,99276.84
2023-03-22T02:20:58.685Z,99259.13
2023-03-22T02:23:46.537Z,99260.66
2023-03-22T02:26:49.586Z,99249.78
2023-03-22T02:29:30.068Z,99253.81
2023-03-22T02:32:21.709Z,99189.44
2023-03-22T02:35:21.701Z,99263.31
2023-03-22T02:38:18.752Z,99252.91
2023-03-22T02:40:55.024Z,99259.63
2023-03-22T02:43:38.477Z,99247.19
2023-03-22T02:46:15.419Z,99236.41
2023-03-22T02:48:54.183Z,99220.38
2023-03-22T02:51:30.797Z,99212.28
2023-03-22T02:54:05.544Z,99209.63
2023-03-22T02:56:42.834Z,99209.22
2023-03-22T02:59:16.693Z,99207.56
2023-03-22T03:01:51.815Z,99210.59
2023-03-22T03:04:27.583Z,99206.63
2023-03-22T03:07:04.045Z,99201.25
2023-03-22T03:09:37.985Z,99205.81
2023-03-22T03:12:18.891Z,99207.50
2023-03-22T03:14:52.839Z,99226.19
2023-03-22T03:17:33.969Z,99230.47
2023-03-22T03:20:15.070Z,99225.25
2023-03-22T03:22:53.287Z,99236.50
2023-03-22T03:25:28.732Z,99232.47
2023-03-22T03:28:06.001Z,99233.97
2023-03-22T03:30:46.293Z,99232.75
2023-03-22T03:33:21.610Z,99246.88
2023-03-22T03:35:58.133Z,99264.06
2023-03-22T03:38:32.896Z,99264.56
2023-03-22T03:41:07.793Z,99264.41
2023-03-22T03:43:43.500Z,99264.97
2023-03-22T03:46:17.285Z,99271.34
2023-03-22T03:48:51.919Z,99267.75
2023-03-22T03:51:25.293Z,99267.88
2023-03-22T03:53:58.645Z,99275.59
2023-03-22T03:56:31.625Z,99270.66
2023-03-22T03:59:08.356Z,99280.88
2023-03-22T04:01:41.278Z,99271.97
2023-03-22T04:04:15.317Z,99283.41
2023-03-22T04:06:49.096Z,99268.47
2023-03-22T04:09:22.180Z,99280.22
2023-03-22T04:11:56.523Z,99282.66
2023-03-22T04:14:31.462Z,99294.47
2023-03-22T04:17:05.239Z,99292.63
2023-03-22T04:19:38.467Z,99294.25
2023-03-22T04:22:18.509Z,99301.38
2023-03-22T04:24:51.497Z,99295.44
2023-03-22T04:27:24.667Z,99297.38
2023-03-22T04:30:01.056Z,99304.19
2023-03-22T04:32:34.480Z,99296.88
2023-03-22T04:35:08.007Z,99306.69
2023-03-22T04:37:41.782Z,99305.75
2023-03-22T04:40:17.163Z,99309.50
2023-03-22T04:42:51.453Z,99309.69
2023-03-22T04:45:29.319Z,99304.44
2023-03-22T04:48:02.702Z,99310.81
2023-03-22T04:50:35.665Z,99315.13
2023-03-22T04:53:08.588Z,99323.28
2023-03-22T04:55:41.628Z,99317.63
2023-03-22T04:58:16.547Z,99325.56
2023-03-22T05:00:52.777Z,99325.88
2023-03-22T05:03:26.173Z,99321.84
2023-03-22T05:06:00.305Z,99321.50
2023-03-22T05:08:34.872Z,99325.06
2023-03-22T05:11:09.437Z,99326.53
2023-03-22T05:13:43.444Z,99325.75
2023-03-22T05:16:18.316Z,99327.59
2023-03-22T05:18:54.444Z,99322.91
2023-03-22T05:21:29.267Z,99327.84
2023-03-22T05:24:02.184Z,99333.97
2023-03-22T05:26:38.107Z,99349.78
2023-03-22T05:29:11.494Z,99347.88
2023-03-22T05:31:46.081Z,99364.28
2023-03-22T05:34:20.377Z,99359.09
2023-03-22T05:36:53.498Z,99366.13
2023-03-22T05:39:26.520Z,99367.50
2023-03-22T05:41:59.870Z,99361.91
2023-03-22T05:44:32.903Z,99372.31
2023-03-22T05:47:07.511Z,99374.34
2023-03-22T05:49:40.418Z,99376.25
2023-03-22T05:52:13.651Z,99374.09
2023-03-22T05:54:47.966Z,99377.00
2023-03-22T05:57:21.243Z,99372.72
2023-03-22T05:59:54.510Z,99382.03
2023-03-22T06:02:29.149Z,99397.63
2023-03-22T06:05:02.171Z,99411.78
2023-03-22T06:07:35.980Z,99421.13
2023-03-22T06:10:12.282Z,99415.88
2023-03-22T06:12:45.560Z,99429.66
2023-03-22T06:15:18.796Z,99424.00
2023-03-22T06:17:53.171Z,99429.22
2023-03-22T06:20:26.909Z,99423.38
2023-03-22T06:23:00.232Z,99430.47
2023-03-22T06:25:33.529Z,99439.19
2023-03-22T06:28:08.685Z,99437.50
2023-03-22T06:30:42.269Z,99436.88
2023-03-22T06:33:17.172Z,99433.53
2023-03-22T06:35:50.208Z,99439.69
2023-03-22T06:38:23.500Z,99437.88
2023-03-22T06:40:56.692Z,99439.91
2023-03-22T06:43:29.965Z,99441.13
2023-03-22T06:46:03.298Z,99451.63
2023-03-22T06:48:37.592Z,99443.41
2023-03-22T06:51:11.048Z,99452.38
2023-03-22T06:53:45.402Z,99455.41
2023-03-22T06:56:18.743Z,99458.91
2023-03-22T06:58:52.557Z,99458.53
2023-03-22T07:01:26.530Z,99463.72
2023-03-22T07:04:01.263Z,99462.31
2023-03-22T07:06:34.207Z,99463.16
2023-03-22T07:09:07.500Z,99467.38
2023-03-22T07:11:41.313Z,99459.28
2023-03-22T07:14:14.816Z,99456.81
2023-03-22T07:16:48.072Z,99458.66
2023-03-22T07:19:22.436Z,99466.88
2023-03-22T07:21:55.460Z,99467.97
2023-03-22T07:24:29.950Z,99472.56
2023-03-22T07:27:03.250Z,99473.91
2023-03-22T07:29:36.245Z,99475.31
2023-03-22T07:32:09.315Z,99470.75
2023-03-22T07:34:43.778Z,99470.84
2023-03-22T07:37:17.007Z,99468.69
2023-03-22T07:39:50.205Z,99468.44
2023-03-22T07:42:23.516Z,99472.91
2023-03-22T07:44:56.531Z,99471.72
2023-03-22T07:47:40.393Z,99473.66
2023-03-22T07:50:16.970Z,99477.50
2023-03-22T07:52:50.285Z,99478.47
2023-03-22T07:55:23.430Z,99481.59
2023-03-22T07:57:56.547Z,99474.34
2023-03-22T08:00:30.532Z,99479.06
2023-03-22T08:03:03.663Z,99483.53
2023-03-22T08:05:40.764Z,99490.56
2023-03-22T08:08:14.394Z,99481.81
2023-03-22T08:10:49.808Z,99490.28
2023-03-22T08:13:23.740Z,99496.47
2023-03-22T08:15:57.051Z,99499.31
2023-03-22T08:18:30.616Z,99489.25
2023-03-22T08:21:05.478Z,99494.81
2023-03-22T08:23:42.188Z,99496.03
2023-03-22T08:26:15.987Z,99500.31
2023-03-22T08:28:49.164Z,99502.34
2023-03-22T08:31:22.738Z,99504.28
2023-03-22T08:33:56.274Z,99498.13
2023-03-22T08:36:31.328Z,99503.78
2023-03-22T08:39:04.718Z,99512.34
2023-03-22T08:41:37.646Z,99507.69
2023-03-22T08:44:10.820Z,99508.88
2023-03-22T08:46:43.923Z,99509.13
2023-03-22T08:49:17.167Z,99509.72
2023-03-22T08:51:51.676Z,99503.81
2023-03-22T08:54:25.155Z,99507.25
2023-03-22T08:56:59.205Z,99504.91
2023-03-22T08:59:32.651Z,99513.41
2023-03-22T09:02:06.006Z,99516.91
2023-03-22T09:04:39.626Z,99505.53
2023-03-22T09:07:13.928Z,99509.44
2023-03-22T09:09:47.290Z,99514.78
2023-03-22T09:12:21.110Z,99463.31
2023-03-22T09:14:56.863Z,99516.97
2023-03-22T09:17:30.524Z,99513.75
2023-03-22T09:20:12.498Z,99509.84
2023-03-22T09:22:47.652Z,99513.53
2023-03-22T09:25:21.358Z,99501.91
2023-03-22T09:27:54.565Z,99512.09
2023-03-22T09:30:28.112Z,99510.03
2023-03-22T09:33:01.584Z,99508.47
2023-03-22T09:35:34.527Z,99501.66
2023-03-22T09:38:09.160Z,99504.50
2023-03-22T09:40:47.429Z,99506.94
2023-03-22T09:43:20.969Z,99501.69
2023-03-22T09:45:54.071Z,99501.84
2023-03-22T09:48:30.022Z,99494.84
2023-03-22T09:51:03.876Z,99497.81
2023-03-22T09:53:38.339Z,99492.13
2023-03-22T09:56:15.446Z,99502.81
2023-03-22T09:58:52.304Z,99496.94
2023-03-22T10:01:30.128Z,99510.38
2023-03-22T10:04:07.469Z,99507.34
2023-03-22T10:06:41.374Z,99506.09
2023-03-22T10:09:20.450Z,99512.97
2023-03-22T10:12:05.072Z,99516.84
2023-03-22T10:14:41.387Z,99518.41
2023-03-22T10:17:17.582Z,99516.47
2023-03-22T10:19:53.268Z,99516.16
2023-03-22T10:22:30.219Z,99524.50
2023-03-22T10:25:06.131Z,99522.22
2023-03-22T10:27:39.206Z,99463.25
2023-03-22T10:30:20.939Z,99519.41
2023-03-22T10:32:58.388Z,99515.56
2023-03-22T10:35:32.252Z,99519.06
2023-03-22T10:38:08.122Z,99520.22
2023-03-22T10:40:42.535Z,99510.50
2023-03-22T10:43:18.491Z,99508.44
2023-03-22T10:45:53.302Z,99510.44
2023-03-22T10:48:29.029Z,99508.22
2023-03-22T10:51:02.295Z,99491.38
2023-03-22T10:53:38.594Z,99501.50
2023-03-22T10:56:15.563Z,99499.69
2023-03-22T10:58:49.747Z,99494.91
2023-03-22T11:01:28.030Z,99486.59
2023-03-22T11:04:07.460Z,99489.38
2023-03-22T11:06:41.497Z,99492.50
2023-03-22T11:09:17.759Z,99490.38
2023-03-22T11:12:00.900Z,99494.91
2023-03-22T11:14:36.834Z,99479.44
2023-03-22T11:17:14.651Z,99483.25
2023-03-22T11:19:53.041Z,99482.53
2023-03-22T11:22:27.639Z,99477.03
2023-03-22T11:25:01.793Z,99475.78
2023-03-22T11:27:39.494Z,99480.00
2023-03-22T11:30:20.092Z,99469.72
2023-03-22T11:33:01.258Z,99474.22
2023-03-22T11:35:36.702Z,99471.56
2023-03-22T11:38:23.825Z,99466.09
2023-03-22T11:40:57.845Z,99464.81
2023-03-22T11:43:35.880Z,99465.53
2023-03-22T11:46:09.756Z,99460.91
2023-03-22T11:48:43.341Z,99458.50
2023-03-22T11:51:20.783Z,99460.16
2023-03-22T11:53:56.894Z,99459.03
2023-03-22T11:56:31.745Z,99461.56
2023-03-22T11:59:07.906Z,99454.06
2023-03-22T12:01:43.983Z,99455.88
2023-03-22T12:04:21.126Z,99451.97
2023-03-22T12:06:56.812Z,99455.47
2023-03-22T12:09:36.804Z,99460.16
2023-03-22T12:12:15.058Z,99453.25
2023-03-22T12:14:52.844Z,99451.28
2023-03-22T12:17:30.297Z,99449.69
2023-03-22T12:20:08.416Z,99448.81
2023-03-22T12:22:43.496Z,99452.50
2023-03-22T12:25:17.773Z,99444.44
2023-03-22T12:27:54.648Z,99442.56
2023-03-22T12:30:32.174Z,99441.53
2023-03-22T12:33:07.842Z,99450.81
2023-03-22T12:35:44.349Z,99446.28
2023-03-22T12:38:24.956Z,99436.84
2023-03-22T12:40:59.160Z,99441.63
2023-03-22T12:43:49.701Z,99443.00
2023-03-22T12:46:26.323Z,99443.41
2023-03-22T12:49:04.015Z,99435.53
2023-03-22T12:51:37.836Z,99436.91
2023-03-22T12:54:12.903Z,99438.28
2023-03-22T12:56:47.325Z,99443.16
2023-03-22T12:59:23.464Z,99447.97
2023-03-22T13:02:00.306Z,99434.72
2023-03-22T13:04:46.883Z,99439.59
2023-03-22T13:07:32.776Z,99439.75
2023-03-22T13:10:24.442Z,99431.59
2023-03-22T13:13:12.168Z,99435.78
2023-03-22T13:15:59.760Z,99445.94
2023-03-22T13:18:42.450Z,99449.28
2023-03-22T13:21:19.205Z,99454.94
2023-03-22T13:23:57.619Z,99447.19
2023-03-22T13:26:34.722Z,99441.13
2023-03-22T13:29:12.208Z,99444.88
2023-03-22T13:31:46.553Z,99443.31
2023-03-22T13:34:22.491Z,99435.38
2023-03-22T13:36:57.098Z,99445.97
2023-03-22T13:39:34.698Z,99436.78
2023-03-22T13:42:09.697Z,99437.72
2023-03-22T13:44:46.042Z,99436.69
2023-03-22T13:47:32.781Z,99428.50
2023-03-22T13:50:16.224Z,99431.44
2023-03-22T13:52:53.981Z,99438.09
2023-03-22T13:55:42.536Z,99432.50
2023-03-22T13:58:31.150Z,99426.44
2023-03-22T14:01:07.026Z,99432.34
2023-03-22T14:03:42.895Z,99435.88
2023-03-22T14:06:23.334Z,99440.97
2023-03-22T14:08:58.365Z,99434.78
2023-03-22T14:11:34.173Z,99428.66
2023-03-22T14:14:12.284Z,99434.47
2023-03-22T14:16:48.025Z,99434.09
2023-03-22T14:19:23.286Z,99438.59
